sensor_id;sensor_type;location;lat;lon;timestamp;P1;durP1;ratioP1;P2;durP2;ratioP2
22916;SDS011;11624;53.250;7.456;2023-08-08T00:01:51;10.77;;;2.58;;
22916;SDS011;11624;53.250;7.456;2023-08-08T00:04:19;8.70;;;2.85;;
22916;SDS011;11624;53.250;7.456;2023-08-08T00:06:47;10.43;;;3.20;;
22916;SDS011;11624;53.250;7.456;2023-08-08T00:09:15;11.98;;;3.20;;
22916;SDS011;11624;53.250;7.456;2023-08-08T00:11:44;9.65;;;2.80;;
22916;SDS011;11624;53.250;7.456;2023-08-08T00:14:12;10.35;;;3.42;;
22916;SDS011;11624;53.250;7.456;2023-08-08T00:16:41;11.00;;;3.20;;
22916;SDS011;11624;53.250;7.456;2023-08-08T00:19:09;8.82;;;3.03;;
22916;SDS011;11624;53.250;7.456;2023-08-08T00:21:37;13.35;;;3.45;;
22916;SDS011;11624;53.250;7.456;2023-08-08T00:24:05;8.18;;;2.85;;
22916;SDS011;11624;53.250;7.456;2023-08-08T00:26:33;8.50;;;2.72;;
22916;SDS011;11624;53.250;7.456;2023-08-08T00:29:01;8.48;;;2.80;;
22916;SDS011;11624;53.250;7.456;2023-08-08T00:31:30;12.07;;;3.35;;
22916;SDS011;11624;53.250;7.456;2023-08-08T00:33:59;9.77;;;2.95;;
22916;SDS011;11624;53.250;7.456;2023-08-08T00:36:28;8.98;;;2.78;;
22916;SDS011;11624;53.250;7.456;2023-08-08T00:38:56;9.95;;;3.10;;
22916;SDS011;11624;53.250;7.456;2023-08-08T00:41:25;9.85;;;3.30;;
22916;SDS011;11624;53.250;7.456;2023-08-08T00:43:53;13.23;;;3.75;;
22916;SDS011;11624;53.250;7.456;2023-08-08T00:46:22;9.15;;;3.08;;
22916;SDS011;11624;53.250;7.456;2023-08-08T00:48:51;10.55;;;3.30;;
22916;SDS011;11624;53.250;7.456;2023-08-08T00:51:21;10.13;;;3.42;;
22916;SDS011;11624;53.250;7.456;2023-08-08T00:53:49;9.85;;;2.88;;
22916;SDS011;11624;53.250;7.456;2023-08-08T00:56:17;11.40;;;3.40;;
22916;SDS011;11624;53.250;7.456;2023-08-08T00:58:46;16.02;;;3.50;;
22916;SDS011;11624;53.250;7.456;2023-08-08T01:01:17;11.25;;;3.20;;
22916;SDS011;11624;53.250;7.456;2023-08-08T01:03:45;12.95;;;3.30;;
22916;SDS011;11624;53.250;7.456;2023-08-08T01:06:16;8.88;;;3.30;;
22916;SDS011;11624;53.250;7.456;2023-08-08T01:08:52;10.02;;;3.00;;
22916;SDS011;11624;53.250;7.456;2023-08-08T01:11:25;8.32;;;3.13;;
22916;SDS011;11624;53.250;7.456;2023-08-08T01:13:56;9.15;;;3.33;;
22916;SDS011;11624;53.250;7.456;2023-08-08T01:16:24;14.18;;;3.40;;
22916;SDS011;11624;53.250;7.456;2023-08-08T01:18:55;10.30;;;3.53;;
22916;SDS011;11624;53.250;7.456;2023-08-08T01:21:26;9.45;;;3.30;;
22916;SDS011;11624;53.250;7.456;2023-08-08T01:24:00;9.27;;;3.33;;
22916;SDS011;11624;53.250;7.456;2023-08-08T01:26:35;9.55;;;3.50;;
22916;SDS011;11624;53.250;7.456;2023-08-08T01:29:03;7.65;;;3.00;;
22916;SDS011;11624;53.250;7.456;2023-08-08T01:31:31;11.10;;;3.08;;
22916;SDS011;11624;53.250;7.456;2023-08-08T01:33:59;11.23;;;3.60;;
22916;SDS011;11624;53.250;7.456;2023-08-08T01:36:28;9.70;;;3.25;;
22916;SDS011;11624;53.250;7.456;2023-08-08T01:39:03;7.65;;;3.00;;
22916;SDS011;11624;53.250;7.456;2023-08-08T01:41:38;8.73;;;3.33;;
22916;SDS011;11624;53.250;7.456;2023-08-08T01:44:07;9.80;;;3.20;;
22916;SDS011;11624;53.250;7.456;2023-08-08T01:46:38;12.85;;;2.80;;
22916;SDS011;11624;53.250;7.456;2023-08-08T01:49:06;8.40;;;3.28;;
22916;SDS011;11624;53.250;7.456;2023-08-08T01:51:35;12.02;;;3.97;;
22916;SDS011;11624;53.250;7.456;2023-08-08T01:54:03;7.95;;;2.95;;
22916;SDS011;11624;53.250;7.456;2023-08-08T01:56:31;8.23;;;3.00;;
22916;SDS011;11624;53.250;7.456;2023-08-08T01:59:01;13.48;;;3.30;;
22916;SDS011;11624;53.250;7.456;2023-08-08T02:01:29;9.88;;;3.25;;
22916;SDS011;11624;53.250;7.456;2023-08-08T02:03:57;9.70;;;3.50;;
22916;SDS011;11624;53.250;7.456;2023-08-08T02:06:26;7.72;;;3.20;;
22916;SDS011;11624;53.250;7.456;2023-08-08T02:08:54;8.60;;;3.25;;
22916;SDS011;11624;53.250;7.456;2023-08-08T02:11:22;10.90;;;3.25;;
22916;SDS011;11624;53.250;7.456;2023-08-08T02:13:50;10.73;;;3.60;;
22916;SDS011;11624;53.250;7.456;2023-08-08T02:16:20;8.10;;;3.00;;
22916;SDS011;11624;53.250;7.456;2023-08-08T02:18:48;11.70;;;3.33;;
22916;SDS011;11624;53.250;7.456;2023-08-08T02:21:16;10.07;;;3.53;;
22916;SDS011;11624;53.250;7.456;2023-08-08T02:23:44;7.45;;;3.08;;
22916;SDS011;11624;53.250;7.456;2023-08-08T02:26:12;8.82;;;3.20;;
22916;SDS011;11624;53.250;7.456;2023-08-08T02:28:40;9.68;;;3.42;;
22916;SDS011;11624;53.250;7.456;2023-08-08T02:31:08;9.68;;;3.60;;
22916;SDS011;11624;53.250;7.456;2023-08-08T02:33:38;8.95;;;3.30;;
22916;SDS011;11624;53.250;7.456;2023-08-08T02:36:06;9.18;;;3.42;;
22916;SDS011;11624;53.250;7.456;2023-08-08T02:38:34;9.80;;;3.40;;
22916;SDS011;11624;53.250;7.456;2023-08-08T02:41:02;10.63;;;3.40;;
22916;SDS011;11624;53.250;7.456;2023-08-08T02:43:30;9.73;;;3.50;;
22916;SDS011;11624;53.250;7.456;2023-08-08T02:45:58;8.38;;;3.33;;
22916;SDS011;11624;53.250;7.456;2023-08-08T02:48:26;10.13;;;3.33;;
22916;SDS011;11624;53.250;7.456;2023-08-08T02:50:56;8.02;;;2.83;;
22916;SDS011;11624;53.250;7.456;2023-08-08T02:53:26;10.60;;;2.80;;
22916;SDS011;11624;53.250;7.456;2023-08-08T02:55:54;8.23;;;2.95;;
22916;SDS011;11624;53.250;7.456;2023-08-08T02:58:23;10.38;;;3.03;;
22916;SDS011;11624;53.250;7.456;2023-08-08T03:00:52;9.82;;;3.00;;
22916;SDS011;11624;53.250;7.456;2023-08-08T03:03:20;10.25;;;3.28;;
22916;SDS011;11624;53.250;7.456;2023-08-08T03:05:48;10.32;;;3.15;;
22916;SDS011;11624;53.250;7.456;2023-08-08T03:08:20;11.27;;;3.22;;
22916;SDS011;11624;53.250;7.456;2023-08-08T03:10:48;9.60;;;3.05;;
22916;SDS011;11624;53.250;7.456;2023-08-08T03:13:17;7.90;;;2.78;;
22916;SDS011;11624;53.250;7.456;2023-08-08T03:15:47;7.82;;;3.20;;
22916;SDS011;11624;53.250;7.456;2023-08-08T03:18:16;10.30;;;3.15;;
22916;SDS011;11624;53.250;7.456;2023-08-08T03:20:45;14.88;;;3.83;;
22916;SDS011;11624;53.250;7.456;2023-08-08T03:23:15;11.18;;;3.58;;
22916;SDS011;11624;53.250;7.456;2023-08-08T03:25:44;11.10;;;3.72;;
22916;SDS011;11624;53.250;7.456;2023-08-08T03:28:13;11.63;;;3.38;;
22916;SDS011;11624;53.250;7.456;2023-08-08T03:30:41;11.70;;;3.35;;
22916;SDS011;11624;53.250;7.456;2023-08-08T03:33:11;8.07;;;3.17;;
22916;SDS011;11624;53.250;7.456;2023-08-08T03:35:40;7.43;;;3.00;;
22916;SDS011;11624;53.250;7.456;2023-08-08T03:38:09;7.35;;;2.85;;
22916;SDS011;11624;53.250;7.456;2023-08-08T03:40:38;10.32;;;3.38;;
22916;SDS011;11624;53.250;7.456;2023-08-08T03:43:08;10.35;;;3.10;;
22916;SDS011;11624;53.250;7.456;2023-08-08T03:45:36;12.77;;;3.42;;
22916;SDS011;11624;53.250;7.456;2023-08-08T03:48:04;7.10;;;2.78;;
22916;SDS011;11624;53.250;7.456;2023-08-08T03:50:33;14.38;;;2.90;;
22916;SDS011;11624;53.250;7.456;2023-08-08T03:53:01;11.02;;;3.22;;
22916;SDS011;11624;53.250;7.456;2023-08-08T03:55:29;9.45;;;2.75;;
22916;SDS011;11624;53.250;7.456;2023-08-08T03:57:57;9.23;;;3.00;;
22916;SDS011;11624;53.250;7.456;2023-08-08T04:00:27;9.98;;;2.88;;
22916;SDS011;11624;53.250;7.456;2023-08-08T04:02:55;8.25;;;3.20;;
22916;SDS011;11624;53.250;7.456;2023-08-08T04:05:23;8.93;;;3.05;;
22916;SDS011;11624;53.250;7.456;2023-08-08T04:07:51;9.15;;;3.13;;
22916;SDS011;11624;53.250;7.456;2023-08-08T04:10:19;11.65;;;2.88;;
22916;SDS011;11624;53.250;7.456;2023-08-08T04:12:47;6.55;;;2.40;;
22916;SDS011;11624;53.250;7.456;2023-08-08T04:15:15;7.57;;;2.60;;
22916;SDS011;11624;53.250;7.456;2023-08-08T04:17:45;9.77;;;2.80;;
22916;SDS011;11624;53.250;7.456;2023-08-08T04:20:13;8.10;;;2.55;;
22916;SDS011;11624;53.250;7.456;2023-08-08T04:22:42;10.25;;;2.55;;
22916;SDS011;11624;53.250;7.456;2023-08-08T04:25:10;10.75;;;2.92;;
22916;SDS011;11624;53.250;7.456;2023-08-08T04:27:38;9.18;;;2.70;;
22916;SDS011;11624;53.250;7.456;2023-08-08T04:30:07;8.27;;;2.67;;
22916;SDS011;11624;53.250;7.456;2023-08-08T04:32:35;8.00;;;2.53;;
22916;SDS011;11624;53.250;7.456;2023-08-08T04:35:05;8.73;;;2.67;;
22916;SDS011;11624;53.250;7.456;2023-08-08T04:37:34;8.40;;;2.63;;
22916;SDS011;11624;53.250;7.456;2023-08-08T04:40:02;11.07;;;3.00;;
22916;SDS011;11624;53.250;7.456;2023-08-08T04:42:30;7.57;;;2.85;;
22916;SDS011;11624;53.250;7.456;2023-08-08T04:44:59;8.63;;;2.60;;
22916;SDS011;11624;53.250;7.456;2023-08-08T04:47:27;5.43;;;2.38;;
22916;SDS011;11624;53.250;7.456;2023-08-08T04:49:55;8.30;;;2.90;;
22916;SDS011;11624;53.250;7.456;2023-08-08T04:52:25;8.25;;;2.60;;
22916;SDS011;11624;53.250;7.456;2023-08-08T04:54:53;9.52;;;3.00;;
22916;SDS011;11624;53.250;7.456;2023-08-08T04:57:21;8.15;;;2.75;;
22916;SDS011;11624;53.250;7.456;2023-08-08T04:59:49;9.80;;;3.00;;
22916;SDS011;11624;53.250;7.456;2023-08-08T05:02:17;7.55;;;2.70;;
22916;SDS011;11624;53.250;7.456;2023-08-08T05:04:45;8.32;;;2.75;;
22916;SDS011;11624;53.250;7.456;2023-08-08T05:07:14;9.20;;;2.83;;
22916;SDS011;11624;53.250;7.456;2023-08-08T05:09:43;14.35;;;3.03;;
22916;SDS011;11624;53.250;7.456;2023-08-08T05:12:11;8.50;;;2.53;;
22916;SDS011;11624;53.250;7.456;2023-08-08T05:14:39;9.02;;;2.60;;
22916;SDS011;11624;53.250;7.456;2023-08-08T05:17:07;7.10;;;2.60;;
22916;SDS011;11624;53.250;7.456;2023-08-08T05:19:35;8.38;;;2.47;;
22916;SDS011;11624;53.250;7.456;2023-08-08T05:22:04;7.95;;;2.30;;
22916;SDS011;11624;53.250;7.456;2023-08-08T05:24:32;7.85;;;2.40;;
22916;SDS011;11624;53.250;7.456;2023-08-08T05:27:03;10.45;;;2.40;;
22916;SDS011;11624;53.250;7.456;2023-08-08T05:29:31;9.75;;;2.50;;
22916;SDS011;11624;53.250;7.456;2023-08-08T05:32:00;9.23;;;2.38;;
22916;SDS011;11624;53.250;7.456;2023-08-08T05:34:28;12.70;;;2.13;;
22916;SDS011;11624;53.250;7.456;2023-08-08T05:36:59;9.65;;;2.33;;
22916;SDS011;11624;53.250;7.456;2023-08-08T05:39:42;9.02;;;2.50;;
22916;SDS011;11624;53.250;7.456;2023-08-08T05:42:12;5.90;;;2.10;;
22916;SDS011;11624;53.250;7.456;2023-08-08T05:44:40;9.98;;;2.53;;
22916;SDS011;11624;53.250;7.456;2023-08-08T05:47:09;9.70;;;2.55;;
22916;SDS011;11624;53.250;7.456;2023-08-08T05:49:38;7.22;;;1.95;;
22916;SDS011;11624;53.250;7.456;2023-08-08T05:52:08;8.32;;;2.22;;
22916;SDS011;11624;53.250;7.456;2023-08-08T05:54:37;10.52;;;2.70;;
22916;SDS011;11624;53.250;7.456;2023-08-08T05:57:05;8.82;;;2.08;;
22916;SDS011;11624;53.250;7.456;2023-08-08T05:59:35;7.05;;;2.03;;
22916;SDS011;11624;53.250;7.456;2023-08-08T06:02:03;5.50;;;1.85;;
22916;SDS011;11624;53.250;7.456;2023-08-08T06:04:32;6.45;;;1.85;;
22916;SDS011;11624;53.250;7.456;2023-08-08T06:07:00;8.48;;;2.00;;
22916;SDS011;11624;53.250;7.456;2023-08-08T06:09:28;9.65;;;1.85;;
22916;SDS011;11624;53.250;7.456;2023-08-08T06:11:57;6.93;;;2.00;;
22916;SDS011;11624;53.250;7.456;2023-08-08T06:14:26;5.15;;;1.70;;
22916;SDS011;11624;53.250;7.456;2023-08-08T06:16:55;8.30;;;2.28;;
22916;SDS011;11624;53.250;7.456;2023-08-08T06:19:24;4.20;;;1.70;;
22916;SDS011;11624;53.250;7.456;2023-08-08T06:21:52;6.32;;;1.52;;
22916;SDS011;11624;53.250;7.456;2023-08-08T06:24:20;10.05;;;1.90;;
22916;SDS011;11624;53.250;7.456;2023-08-08T06:26:48;4.43;;;1.60;;
22916;SDS011;11624;53.250;7.456;2023-08-08T06:29:16;6.05;;;1.80;;
22916;SDS011;11624;53.250;7.456;2023-08-08T06:31:44;4.30;;;1.50;;
22916;SDS011;11624;53.250;7.456;2023-08-08T06:34:14;3.78;;;1.50;;
22916;SDS011;11624;53.250;7.456;2023-08-08T06:36:42;5.78;;;1.50;;
22916;SDS011;11624;53.250;7.456;2023-08-08T06:39:13;5.88;;;1.75;;
22916;SDS011;11624;53.250;7.456;2023-08-08T06:41:41;6.15;;;1.70;;
22916;SDS011;11624;53.250;7.456;2023-08-08T06:44:09;7.82;;;1.83;;
22916;SDS011;11624;53.250;7.456;2023-08-08T06:46:37;10.23;;;2.03;;
22916;SDS011;11624;53.250;7.456;2023-08-08T06:49:06;4.80;;;1.50;;
22916;SDS011;11624;53.250;7.456;2023-08-08T06:51:36;5.43;;;1.80;;
22916;SDS011;11624;53.250;7.456;2023-08-08T06:54:05;4.88;;;1.45;;
22916;SDS011;11624;53.250;7.456;2023-08-08T06:56:34;8.13;;;1.85;;
22916;SDS011;11624;53.250;7.456;2023-08-08T06:59:02;5.43;;;1.55;;
22916;SDS011;11624;53.250;7.456;2023-08-08T07:01:30;8.02;;;1.80;;
22916;SDS011;11624;53.250;7.456;2023-08-08T07:03:58;6.60;;;1.63;;
22916;SDS011;11624;53.250;7.456;2023-08-08T07:06:27;11.10;;;2.20;;
22916;SDS011;11624;53.250;7.456;2023-08-08T07:08:56;4.70;;;1.50;;
22916;SDS011;11624;53.250;7.456;2023-08-08T07:11:25;7.20;;;1.70;;
22916;SDS011;11624;53.250;7.456;2023-08-08T07:13:53;4.75;;;1.83;;
22916;SDS011;11624;53.250;7.456;2023-08-08T07:16:21;8.98;;;1.67;;
22916;SDS011;11624;53.250;7.456;2023-08-08T07:18:49;5.43;;;1.52;;
22916;SDS011;11624;53.250;7.456;2023-08-08T07:21:21;6.80;;;1.73;;
22916;SDS011;11624;53.250;7.456;2023-08-08T07:23:49;5.50;;;1.80;;
22916;SDS011;11624;53.250;7.456;2023-08-08T07:26:18;3.38;;;1.42;;
22916;SDS011;11624;53.250;7.456;2023-08-08T07:28:48;6.03;;;1.73;;
22916;SDS011;11624;53.250;7.456;2023-08-08T07:31:16;8.30;;;1.80;;
22916;SDS011;11624;53.250;7.456;2023-08-08T07:33:45;11.25;;;2.10;;
22916;SDS011;11624;53.250;7.456;2023-08-08T07:36:13;5.78;;;1.38;;
22916;SDS011;11624;53.250;7.456;2023-08-08T07:38:41;3.65;;;1.33;;
22916;SDS011;11624;53.250;7.456;2023-08-08T07:41:11;6.35;;;1.50;;
22916;SDS011;11624;53.250;7.456;2023-08-08T07:43:40;4.43;;;1.40;;
22916;SDS011;11624;53.250;7.456;2023-08-08T07:46:08;6.82;;;1.70;;
22916;SDS011;11624;53.250;7.456;2023-08-08T07:48:37;4.82;;;1.30;;
22916;SDS011;11624;53.250;7.456;2023-08-08T07:51:05;7.40;;;1.48;;
22916;SDS011;11624;53.250;7.456;2023-08-08T07:53:33;6.55;;;1.67;;
22916;SDS011;11624;53.250;7.456;2023-08-08T07:56:01;5.40;;;1.33;;
22916;SDS011;11624;53.250;7.456;2023-08-08T07:58:29;10.25;;;1.50;;
22916;SDS011;11624;53.250;7.456;2023-08-08T08:00:58;7.22;;;1.60;;
22916;SDS011;11624;53.250;7.456;2023-08-08T08:03:26;6.90;;;1.40;;
22916;SDS011;11624;53.250;7.456;2023-08-08T08:05:55;4.70;;;1.38;;
22916;SDS011;11624;53.250;7.456;2023-08-08T08:08:31;5.07;;;1.13;;
22916;SDS011;11624;53.250;7.456;2023-08-08T08:11:01;6.32;;;1.20;;
22916;SDS011;11624;53.250;7.456;2023-08-08T08:13:29;6.30;;;1.17;;
22916;SDS011;11624;53.250;7.456;2023-08-08T08:15:59;4.60;;;1.25;;
22916;SDS011;11624;53.250;7.456;2023-08-08T08:18:27;6.70;;;1.85;;
22916;SDS011;11624;53.250;7.456;2023-08-08T08:20:55;5.05;;;1.17;;
22916;SDS011;11624;53.250;7.456;2023-08-08T08:23:23;9.52;;;1.60;;
22916;SDS011;11624;53.250;7.456;2023-08-08T08:25:53;4.18;;;1.25;;
22916;SDS011;11624;53.250;7.456;2023-08-08T08:28:23;4.65;;;1.17;;
22916;SDS011;11624;53.250;7.456;2023-08-08T08:30:51;10.55;;;1.77;;
22916;SDS011;11624;53.250;7.456;2023-08-08T08:33:21;7.03;;;1.27;;
22916;SDS011;11624;53.250;7.456;2023-08-08T08:35:49;6.90;;;1.58;;
22916;SDS011;11624;53.250;7.456;2023-08-08T08:38:17;4.70;;;1.60;;
22916;SDS011;11624;53.250;7.456;2023-08-08T08:40:46;7.65;;;1.10;;
22916;SDS011;11624;53.250;7.456;2023-08-08T08:43:15;5.50;;;1.27;;
22916;SDS011;11624;53.250;7.456;2023-08-08T08:45:43;6.93;;;1.35;;
22916;SDS011;11624;53.250;7.456;2023-08-08T08:48:17;5.60;;;1.52;;
22916;SDS011;11624;53.250;7.456;2023-08-08T08:50:48;8.70;;;1.90;;
22916;SDS011;11624;53.250;7.456;2023-08-08T08:53:16;8.02;;;1.80;;
22916;SDS011;11624;53.250;7.456;2023-08-08T08:55:46;7.38;;;1.58;;
22916;SDS011;11624;53.250;7.456;2023-08-08T08:58:15;5.13;;;1.30;;
22916;SDS011;11624;53.250;7.456;2023-08-08T09:00:44;9.27;;;1.92;;
22916;SDS011;11624;53.250;7.456;2023-08-08T09:03:13;6.20;;;1.60;;
22916;SDS011;11624;53.250;7.456;2023-08-08T09:05:43;5.13;;;1.15;;
22916;SDS011;11624;53.250;7.456;2023-08-08T09:08:13;10.30;;;2.47;;
22916;SDS011;11624;53.250;7.456;2023-08-08T09:10:42;3.72;;;1.15;;
22916;SDS011;11624;53.250;7.456;2023-08-08T09:13:13;6.65;;;1.38;;
22916;SDS011;11624;53.250;7.456;2023-08-08T09:15:46;8.05;;;1.60;;
22916;SDS011;11624;53.250;7.456;2023-08-08T09:18:30;4.25;;;0.98;;
22916;SDS011;11624;53.250;7.456;2023-08-08T09:20:59;6.00;;;0.98;;
22916;SDS011;11624;53.250;7.456;2023-08-08T09:23:29;7.85;;;1.20;;
22916;SDS011;11624;53.250;7.456;2023-08-08T09:25:59;13.50;;;1.55;;
22916;SDS011;11624;53.250;7.456;2023-08-08T09:28:28;8.30;;;1.35;;
22916;SDS011;11624;53.250;7.456;2023-08-08T09:30:56;5.32;;;1.20;;
22916;SDS011;11624;53.250;7.456;2023-08-08T09:33:28;7.03;;;1.40;;
22916;SDS011;11624;53.250;7.456;2023-08-08T09:35:56;5.03;;;1.20;;
22916;SDS011;11624;53.250;7.456;2023-08-08T09:38:24;4.40;;;1.10;;
22916;SDS011;11624;53.250;7.456;2023-08-08T09:40:54;8.90;;;1.73;;
22916;SDS011;11624;53.250;7.456;2023-08-08T09:43:22;4.97;;;1.50;;
22916;SDS011;11624;53.250;7.456;2023-08-08T09:45:52;8.50;;;1.65;;
22916;SDS011;11624;53.250;7.456;2023-08-08T09:48:20;6.55;;;1.30;;
22916;SDS011;11624;53.250;7.456;2023-08-08T09:50:57;6.90;;;1.50;;
22916;SDS011;11624;53.250;7.456;2023-08-08T09:53:26;8.93;;;1.80;;
22916;SDS011;11624;53.250;7.456;2023-08-08T09:55:58;9.38;;;1.52;;
22916;SDS011;11624;53.250;7.456;2023-08-08T09:58:29;5.72;;;1.40;;
22916;SDS011;11624;53.250;7.456;2023-08-08T10:00:57;7.05;;;1.63;;
22916;SDS011;11624;53.250;7.456;2023-08-08T10:03:26;8.15;;;1.55;;
22916;SDS011;11624;53.250;7.456;2023-08-08T10:05:55;3.42;;;1.27;;
22916;SDS011;11624;53.250;7.456;2023-08-08T10:08:25;5.90;;;1.48;;
22916;SDS011;11624;53.250;7.456;2023-08-08T10:10:53;6.43;;;1.38;;
22916;SDS011;11624;53.250;7.456;2023-08-08T10:13:25;8.00;;;1.40;;
22916;SDS011;11624;53.250;7.456;2023-08-08T10:15:54;5.68;;;1.58;;
22916;SDS011;11624;53.250;7.456;2023-08-08T10:18:23;6.07;;;1.90;;
22916;SDS011;11624;53.250;7.456;2023-08-08T10:20:52;9.65;;;2.15;;
22916;SDS011;11624;53.250;7.456;2023-08-08T10:23:20;3.63;;;1.00;;
22916;SDS011;11624;53.250;7.456;2023-08-08T10:25:50;3.80;;;1.10;;
22916;SDS011;11624;53.250;7.456;2023-08-08T10:28:20;4.88;;;1.20;;
22916;SDS011;11624;53.250;7.456;2023-08-08T10:30:56;6.40;;;1.48;;
22916;SDS011;11624;53.250;7.456;2023-08-08T10:33:28;5.82;;;1.33;;
22916;SDS011;11624;53.250;7.456;2023-08-08T10:36:08;5.53;;;1.48;;
22916;SDS011;11624;53.250;7.456;2023-08-08T10:38:40;5.82;;;1.50;;
22916;SDS011;11624;53.250;7.456;2023-08-08T10:41:10;6.38;;;1.65;;
22916;SDS011;11624;53.250;7.456;2023-08-08T10:43:47;8.30;;;1.70;;
22916;SDS011;11624;53.250;7.456;2023-08-08T10:46:24;8.18;;;1.85;;
22916;SDS011;11624;53.250;7.456;2023-08-08T10:48:55;4.90;;;1.30;;
22916;SDS011;11624;53.250;7.456;2023-08-08T10:51:31;7.35;;;1.75;;
22916;SDS011;11624;53.250;7.456;2023-08-08T10:54:03;6.70;;;1.60;;
22916;SDS011;11624;53.250;7.456;2023-08-08T10:56:32;4.22;;;1.35;;
22916;SDS011;11624;53.250;7.456;2023-08-08T10:59:13;4.80;;;1.10;;
22916;SDS011;11624;53.250;7.456;2023-08-08T11:01:44;4.43;;;1.52;;
22916;SDS011;11624;53.250;7.456;2023-08-08T11:04:15;5.65;;;1.67;;
22916;SDS011;11624;53.250;7.456;2023-08-08T11:06:45;6.18;;;1.50;;
22916;SDS011;11624;53.250;7.456;2023-08-08T11:09:17;7.53;;;1.75;;
22916;SDS011;11624;53.250;7.456;2023-08-08T11:11:57;5.00;;;1.20;;
22916;SDS011;11624;53.250;7.456;2023-08-08T11:14:28;5.32;;;1.65;;
22916;SDS011;11624;53.250;7.456;2023-08-08T11:16:56;7.32;;;1.65;;
22916;SDS011;11624;53.250;7.456;2023-08-08T11:19:24;9.88;;;1.88;;
22916;SDS011;11624;53.250;7.456;2023-08-08T11:21:56;7.10;;;1.55;;
22916;SDS011;11624;53.250;7.456;2023-08-08T11:24:26;10.15;;;1.98;;
22916;SDS011;11624;53.250;7.456;2023-08-08T11:26:57;6.78;;;1.42;;
22916;SDS011;11624;53.250;7.456;2023-08-08T11:29:27;7.25;;;1.20;;
22916;SDS011;11624;53.250;7.456;2023-08-08T11:31:57;4.90;;;1.35;;
22916;SDS011;11624;53.250;7.456;2023-08-08T11:34:30;4.50;;;1.17;;
22916;SDS011;11624;53.250;7.456;2023-08-08T11:36:59;6.82;;;1.45;;
22916;SDS011;11624;53.250;7.456;2023-08-08T11:39:28;8.40;;;1.48;;
22916;SDS011;11624;53.250;7.456;2023-08-08T11:41:57;9.05;;;1.60;;
22916;SDS011;11624;53.250;7.456;2023-08-08T11:44:25;4.47;;;1.20;;
22916;SDS011;11624;53.250;7.456;2023-08-08T11:46:59;9.23;;;1.20;;
22916;SDS011;11624;53.250;7.456;2023-08-08T11:49:29;8.25;;;1.70;;
22916;SDS011;11624;53.250;7.456;2023-08-08T11:51:58;5.97;;;1.65;;
22916;SDS011;11624;53.250;7.456;2023-08-08T11:54:27;5.72;;;1.48;;
22916;SDS011;11624;53.250;7.456;2023-08-08T11:56:55;6.15;;;1.30;;
22916;SDS011;11624;53.250;7.456;2023-08-08T11:59:24;4.82;;;1.30;;
22916;SDS011;11624;53.250;7.456;2023-08-08T12:01:58;7.63;;;1.50;;
22916;SDS011;11624;53.250;7.456;2023-08-08T12:04:27;3.47;;;1.00;;
22916;SDS011;11624;53.250;7.456;2023-08-08T12:07:02;6.28;;;1.50;;
22916;SDS011;11624;53.250;7.456;2023-08-08T12:09:31;4.35;;;0.95;;
22916;SDS011;11624;53.250;7.456;2023-08-08T12:12:00;5.13;;;1.08;;
22916;SDS011;11624;53.250;7.456;2023-08-08T12:14:38;5.70;;;1.52;;
22916;SDS011;11624;53.250;7.456;2023-08-08T12:17:22;4.28;;;1.27;;
22916;SDS011;11624;53.250;7.456;2023-08-08T12:19:50;3.65;;;1.25;;
22916;SDS011;11624;53.250;7.456;2023-08-08T12:22:19;5.95;;;1.60;;
22916;SDS011;11624;53.250;7.456;2023-08-08T12:24:48;3.53;;;1.17;;
22916;SDS011;11624;53.250;7.456;2023-08-08T12:27:23;4.80;;;1.10;;
22916;SDS011;11624;53.250;7.456;2023-08-08T12:29:56;7.50;;;1.25;;
22916;SDS011;11624;53.250;7.456;2023-08-08T12:32:28;4.72;;;1.17;;
22916;SDS011;11624;53.250;7.456;2023-08-08T12:34:58;5.00;;;1.33;;
22916;SDS011;11624;53.250;7.456;2023-08-08T12:37:26;5.97;;;1.40;;
22916;SDS011;11624;53.250;7.456;2023-08-08T12:39:56;6.70;;;1.48;;
22916;SDS011;11624;53.250;7.456;2023-08-08T12:42:25;7.00;;;1.40;;
22916;SDS011;11624;53.250;7.456;2023-08-08T12:44:54;6.63;;;1.38;;
22916;SDS011;11624;53.250;7.456;2023-08-08T12:47:22;8.00;;;2.03;;
22916;SDS011;11624;53.250;7.456;2023-08-08T12:49:50;10.93;;;1.90;;
22916;SDS011;11624;53.250;7.456;2023-08-08T12:52:19;5.53;;;1.48;;
22916;SDS011;11624;53.250;7.456;2023-08-08T12:55:21;6.97;;;1.38;;
22916;SDS011;11624;53.250;7.456;2023-08-08T12:57:50;6.93;;;1.25;;
22916;SDS011;11624;53.250;7.456;2023-08-08T13:00:22;7.38;;;1.60;;
22916;SDS011;11624;53.250;7.456;2023-08-08T13:02:50;7.35;;;1.23;;
22916;SDS011;11624;53.250;7.456;2023-08-08T13:05:19;10.95;;;1.58;;
22916;SDS011;11624;53.250;7.456;2023-08-08T13:07:47;6.22;;;1.35;;
22916;SDS011;11624;53.250;7.456;2023-08-08T13:10:18;10.93;;;1.40;;
22916;SDS011;11624;53.250;7.456;2023-08-08T13:12:47;8.00;;;1.42;;
22916;SDS011;11624;53.250;7.456;2023-08-08T13:15:16;4.25;;;1.23;;
22916;SDS011;11624;53.250;7.456;2023-08-08T13:17:45;7.30;;;1.75;;
22916;SDS011;11624;53.250;7.456;2023-08-08T13:20:14;10.65;;;1.58;;
22916;SDS011;11624;53.250;7.456;2023-08-08T13:22:43;7.07;;;1.60;;
22916;SDS011;11624;53.250;7.456;2023-08-08T13:25:12;10.15;;;1.45;;
22916;SDS011;11624;53.250;7.456;2023-08-08T13:27:41;4.88;;;1.15;;
22916;SDS011;11624;53.250;7.456;2023-08-08T13:30:10;6.60;;;1.17;;
22916;SDS011;11624;53.250;7.456;2023-08-08T13:32:39;7.32;;;1.67;;
22916;SDS011;11624;53.250;7.456;2023-08-08T13:35:09;5.00;;;1.25;;
22916;SDS011;11624;53.250;7.456;2023-08-08T13:37:37;6.32;;;1.58;;
22916;SDS011;11624;53.250;7.456;2023-08-08T13:40:06;3.63;;;1.27;;
22916;SDS011;11624;53.250;7.456;2023-08-08T13:42:35;8.68;;;1.27;;
22916;SDS011;11624;53.250;7.456;2023-08-08T13:47:56;5.97;;;1.15;;
22916;SDS011;11624;53.250;7.456;2023-08-08T13:50:26;7.47;;;1.50;;
22916;SDS011;11624;53.250;7.456;2023-08-08T13:52:54;6.40;;;1.13;;
22916;SDS011;11624;53.250;7.456;2023-08-08T13:55:22;8.32;;;1.33;;
22916;SDS011;11624;53.250;7.456;2023-08-08T13:57:53;7.47;;;1.48;;
22916;SDS011;11624;53.250;7.456;2023-08-08T14:00:24;8.43;;;1.80;;
22916;SDS011;11624;53.250;7.456;2023-08-08T14:02:53;7.20;;;1.17;;
22916;SDS011;11624;53.250;7.456;2023-08-08T14:05:22;11.52;;;1.50;;
22916;SDS011;11624;53.250;7.456;2023-08-08T14:07:52;7.45;;;1.23;;
22916;SDS011;11624;53.250;7.456;2023-08-08T14:10:20;6.72;;;1.33;;
22916;SDS011;11624;53.250;7.456;2023-08-08T14:12:49;6.80;;;1.30;;
22916;SDS011;11624;53.250;7.456;2023-08-08T14:15:32;9.65;;;1.50;;
22916;SDS011;11624;53.250;7.456;2023-08-08T14:18:44;4.55;;;1.20;;
22916;SDS011;11624;53.250;7.456;2023-08-08T14:21:19;7.20;;;1.67;;
22916;SDS011;11624;53.250;7.456;2023-08-08T14:24:20;6.22;;;1.33;;
22916;SDS011;11624;53.250;7.456;2023-08-08T14:27:03;6.78;;;1.23;;
22916;SDS011;11624;53.250;7.456;2023-08-08T14:29:33;8.70;;;1.60;;
22916;SDS011;11624;53.250;7.456;2023-08-08T14:32:19;6.47;;;1.42;;
22916;SDS011;11624;53.250;7.456;2023-08-08T14:34:48;10.00;;;1.45;;
22916;SDS011;11624;53.250;7.456;2023-08-08T14:37:31;7.18;;;1.13;;
22916;SDS011;11624;53.250;7.456;2023-08-08T14:40:18;6.18;;;1.27;;
22916;SDS011;11624;53.250;7.456;2023-08-08T14:42:49;6.20;;;1.40;;
22916;SDS011;11624;53.250;7.456;2023-08-08T14:45:19;10.93;;;1.42;;
22916;SDS011;11624;53.250;7.456;2023-08-08T14:47:49;12.63;;;1.52;;
22916;SDS011;11624;53.250;7.456;2023-08-08T14:50:36;6.68;;;1.50;;
22916;SDS011;11624;53.250;7.456;2023-08-08T14:53:17;6.10;;;1.45;;
22916;SDS011;11624;53.250;7.456;2023-08-08T14:55:55;5.20;;;1.15;;
22916;SDS011;11624;53.250;7.456;2023-08-08T14:58:25;6.93;;;1.17;;
22916;SDS011;11624;53.250;7.456;2023-08-08T15:00:54;6.82;;;1.13;;
22916;SDS011;11624;53.250;7.456;2023-08-08T15:03:37;6.22;;;1.23;;
22916;SDS011;11624;53.250;7.456;2023-08-08T15:06:15;9.27;;;1.48;;